sensor_id;sensor_type;location;lat;lon;timestamp;P1;durP1;ratioP1;P2;durP2;ratioP2
25559;SDS011;13450;49.374;8.584;2022-12-19T00:02:13;26.52;;;7.15;;
25559;SDS011;13450;49.374;8.584;2022-12-19T00:04:38;28.20;;;8.43;;
25559;SDS011;13450;49.374;8.584;2022-12-19T00:07:04;22.70;;;7.25;;
25559;SDS011;13450;49.374;8.584;2022-12-19T00:09:29;21.85;;;6.78;;
25559;SDS011;13450;49.374;8.584;2022-12-19T00:11:54;22.95;;;7.22;;
25559;SDS011;13450;49.374;8.584;2022-12-19T00:14:19;25.17;;;7.35;;
25559;SDS011;13450;49.374;8.584;2022-12-19T00:16:45;23.17;;;7.18;;
25559;SDS011;13450;49.374;8.584;2022-12-19T00:19:12;23.83;;;6.45;;
25559;SDS011;13450;49.374;8.584;2022-12-19T00:21:38;19.52;;;6.22;;
25559;SDS011;13450;49.374;8.584;2022-12-19T00:24:04;21.63;;;6.68;;
25559;SDS011;13450;49.374;8.584;2022-12-19T00:26:35;28.13;;;7.95;;
25559;SDS011;13450;49.374;8.584;2022-12-19T00:29:05;28.35;;;8.20;;
25559;SDS011;13450;49.374;8.584;2022-12-19T00:31:33;21.45;;;6.82;;
25559;SDS011;13450;49.374;8.584;2022-12-19T00:33:59;23.15;;;7.45;;
25559;SDS011;13450;49.374;8.584;2022-12-19T00:36:27;21.45;;;7.72;;
25559;SDS011;13450;49.374;8.584;2022-12-19T00:38:55;20.70;;;7.00;;
25559;SDS011;13450;49.374;8.584;2022-12-19T00:41:25;23.08;;;7.35;;
25559;SDS011;13450;49.374;8.584;2022-12-19T00:43:54;25.02;;;7.55;;
25559;SDS011;13450;49.374;8.584;2022-12-19T00:46:21;23.73;;;7.45;;
25559;SDS011;13450;49.374;8.584;2022-12-19T00:48:47;25.60;;;7.40;;
25559;SDS011;13450;49.374;8.584;2022-12-19T00:51:16;26.58;;;7.35;;
25559;SDS011;13450;49.374;8.584;2022-12-19T00:53:46;22.65;;;7.20;;
25559;SDS011;13450;49.374;8.584;2022-12-19T00:56:17;27.45;;;8.80;;
25559;SDS011;13450;49.374;8.584;2022-12-19T00:58:46;23.35;;;7.50;;
25559;SDS011;13450;49.374;8.584;2022-12-19T01:01:16;23.02;;;7.53;;
25559;SDS011;13450;49.374;8.584;2022-12-19T01:03:45;24.33;;;7.28;;
25559;SDS011;13450;49.374;8.584;2022-12-19T01:06:11;23.42;;;7.40;;
25559;SDS011;13450;49.374;8.584;2022-12-19T01:08:37;24.15;;;7.95;;
25559;SDS011;13450;49.374;8.584;2022-12-19T01:11:05;28.70;;;7.53;;
25559;SDS011;13450;49.374;8.584;2022-12-19T01:13:32;22.45;;;7.50;;
25559;SDS011;13450;49.374;8.584;2022-12-19T01:16:02;21.67;;;7.35;;
25559;SDS011;13450;49.374;8.584;2022-12-19T01:18:28;21.98;;;7.35;;
25559;SDS011;13450;49.374;8.584;2022-12-19T01:20:53;28.58;;;8.05;;
25559;SDS011;13450;49.374;8.584;2022-12-19T01:23:19;28.13;;;8.02;;
25559;SDS011;13450;49.374;8.584;2022-12-19T01:25:47;22.02;;;7.63;;
25559;SDS011;13450;49.374;8.584;2022-12-19T01:28:16;23.27;;;7.63;;
25559;SDS011;13450;49.374;8.584;2022-12-19T01:30:41;25.08;;;7.32;;
25559;SDS011;13450;49.374;8.584;2022-12-19T01:33:07;22.73;;;7.53;;
25559;SDS011;13450;49.374;8.584;2022-12-19T01:35:36;23.90;;;7.68;;
25559;SDS011;13450;49.374;8.584;2022-12-19T01:38:01;23.30;;;7.40;;
25559;SDS011;13450;49.374;8.584;2022-12-19T01:40:26;22.27;;;7.03;;
25559;SDS011;13450;49.374;8.584;2022-12-19T01:42:52;27.15;;;7.85;;
25559;SDS011;13450;49.374;8.584;2022-12-19T01:50:50;21.00;;;6.47;;
25559;SDS011;13450;49.374;8.584;2022-12-19T01:53:23;27.20;;;7.60;;
25559;SDS011;13450;49.374;8.584;2022-12-19T01:55:51;27.17;;;7.57;;
25559;SDS011;13450;49.374;8.584;2022-12-19T01:58:18;25.30;;;7.80;;
25559;SDS011;13450;49.374;8.584;2022-12-19T02:00:44;24.27;;;7.47;;
25559;SDS011;13450;49.374;8.584;2022-12-19T02:03:43;25.67;;;7.75;;
25559;SDS011;13450;49.374;8.584;2022-12-19T02:06:03;23.50;;;7.35;;
25559;SDS011;13450;49.374;8.584;2022-12-19T02:08:30;23.58;;;7.25;;
25559;SDS011;13450;49.374;8.584;2022-12-19T02:10:56;21.30;;;7.03;;
25559;SDS011;13450;49.374;8.584;2022-12-19T02:13:21;23.83;;;8.02;;
25559;SDS011;13450;49.374;8.584;2022-12-19T02:18:46;23.55;;;6.95;;
25559;SDS011;13450;49.374;8.584;2022-12-19T02:21:32;21.07;;;6.83;;
25559;SDS011;13450;49.374;8.584;2022-12-19T02:26:47;25.95;;;7.65;;
25559;SDS011;13450;49.374;8.584;2022-12-19T02:32:18;22.10;;;6.43;;
25559;SDS011;13450;49.374;8.584;2022-12-19T02:35:04;25.50;;;7.40;;
25559;SDS011;13450;49.374;8.584;2022-12-19T02:37:49;19.70;;;6.75;;
25559;SDS011;13450;49.374;8.584;2022-12-19T02:42:47;23.23;;;6.72;;
25559;SDS011;13450;49.374;8.584;2022-12-19T02:45:18;17.83;;;6.95;;
25559;SDS011;13450;49.374;8.584;2022-12-19T02:47:45;23.60;;;7.32;;
25559;SDS011;13450;49.374;8.584;2022-12-19T02:50:11;24.17;;;7.70;;
25559;SDS011;13450;49.374;8.584;2022-12-19T02:55:22;23.98;;;7.50;;
25559;SDS011;13450;49.374;8.584;2022-12-19T03:00:30;20.38;;;6.80;;
25559;SDS011;13450;49.374;8.584;2022-12-19T03:08:46;20.20;;;6.55;;
25559;SDS011;13450;49.374;8.584;2022-12-19T03:11:17;23.15;;;7.00;;
25559;SDS011;13450;49.374;8.584;2022-12-19T03:16:24;21.65;;;6.43;;
25559;SDS011;13450;49.374;8.584;2022-12-19T03:18:50;21.60;;;6.95;;
25559;SDS011;13450;49.374;8.584;2022-12-19T03:21:21;19.90;;;6.60;;
25559;SDS011;13450;49.374;8.584;2022-12-19T03:23:53;21.80;;;6.68;;
25559;SDS011;13450;49.374;8.584;2022-12-19T03:26:22;23.35;;;6.82;;
25559;SDS011;13450;49.374;8.584;2022-12-19T03:32:04;24.37;;;6.83;;
25559;SDS011;13450;49.374;8.584;2022-12-19T03:37:17;20.45;;;6.35;;
25559;SDS011;13450;49.374;8.584;2022-12-19T03:39:49;20.25;;;6.57;;
25559;SDS011;13450;49.374;8.584;2022-12-19T03:42:22;24.95;;;6.97;;
25559;SDS011;13450;49.374;8.584;2022-12-19T03:45:08;21.45;;;7.03;;
25559;SDS011;13450;49.374;8.584;2022-12-19T03:50:14;22.98;;;6.53;;
25559;SDS011;13450;49.374;8.584;2022-12-19T03:52:44;29.60;;;7.63;;
25559;SDS011;13450;49.374;8.584;2022-12-19T03:55:39;25.10;;;7.32;;
25559;SDS011;13450;49.374;8.584;2022-12-19T03:58:15;22.80;;;8.20;;
25559;SDS011;13450;49.374;8.584;2022-12-19T04:00:48;23.98;;;7.38;;
25559;SDS011;13450;49.374;8.584;2022-12-19T04:03:15;23.42;;;6.93;;
25559;SDS011;13450;49.374;8.584;2022-12-19T04:05:41;20.52;;;6.97;;
25559;SDS011;13450;49.374;8.584;2022-12-19T04:08:09;32.75;;;9.63;;
25559;SDS011;13450;49.374;8.584;2022-12-19T04:10:45;21.95;;;7.20;;
25559;SDS011;13450;49.374;8.584;2022-12-19T04:13:14;18.88;;;6.57;;
25559;SDS011;13450;49.374;8.584;2022-12-19T04:18:20;20.60;;;7.00;;
25559;SDS011;13450;49.374;8.584;2022-12-19T04:21:30;21.30;;;6.72;;
25559;SDS011;13450;49.374;8.584;2022-12-19T04:23:43;25.15;;;7.10;;
25559;SDS011;13450;49.374;8.584;2022-12-19T04:26:13;25.65;;;7.22;;
25559;SDS011;13450;49.374;8.584;2022-12-19T04:28:44;21.17;;;6.85;;
25559;SDS011;13450;49.374;8.584;2022-12-19T04:31:14;26.27;;;7.40;;
25559;SDS011;13450;49.374;8.584;2022-12-19T04:33:41;27.25;;;8.32;;
25559;SDS011;13450;49.374;8.584;2022-12-19T04:36:07;24.23;;;7.40;;
25559;SDS011;13450;49.374;8.584;2022-12-19T04:38:34;21.52;;;6.78;;
25559;SDS011;13450;49.374;8.584;2022-12-19T04:40:59;23.48;;;7.40;;
25559;SDS011;13450;49.374;8.584;2022-12-19T04:43:25;25.35;;;7.75;;
25559;SDS011;13450;49.374;8.584;2022-12-19T04:45:50;20.70;;;7.15;;
25559;SDS011;13450;49.374;8.584;2022-12-19T04:48:18;24.73;;;7.47;;
25559;SDS011;13450;49.374;8.584;2022-12-19T04:50:43;23.00;;;7.18;;
25559;SDS011;13450;49.374;8.584;2022-12-19T04:53:10;21.45;;;6.75;;
25559;SDS011;13450;49.374;8.584;2022-12-19T04:55:36;20.38;;;6.95;;
25559;SDS011;13450;49.374;8.584;2022-12-19T04:58:04;23.48;;;6.97;;
25559;SDS011;13450;49.374;8.584;2022-12-19T05:00:33;26.48;;;7.57;;
25559;SDS011;13450;49.374;8.584;2022-12-19T05:03:00;25.52;;;7.70;;
25559;SDS011;13450;49.374;8.584;2022-12-19T05:05:26;27.55;;;7.03;;
25559;SDS011;13450;49.374;8.584;2022-12-19T05:07:51;27.10;;;7.85;;
25559;SDS011;13450;49.374;8.584;2022-12-19T05:10:17;23.00;;;7.03;;
25559;SDS011;13450;49.374;8.584;2022-12-19T05:12:42;22.75;;;7.10;;
25559;SDS011;13450;49.374;8.584;2022-12-19T05:15:10;21.52;;;7.20;;
25559;SDS011;13450;49.374;8.584;2022-12-19T05:17:35;25.55;;;7.57;;
25559;SDS011;13450;49.374;8.584;2022-12-19T05:20:03;21.08;;;7.50;;
25559;SDS011;13450;49.374;8.584;2022-12-19T05:22:30;21.60;;;6.85;;
25559;SDS011;13450;49.374;8.584;2022-12-19T05:24:56;24.50;;;7.55;;
25559;SDS011;13450;49.374;8.584;2022-12-19T05:27:21;23.33;;;6.97;;
25559;SDS011;13450;49.374;8.584;2022-12-19T05:29:46;25.23;;;7.68;;
25559;SDS011;13450;49.374;8.584;2022-12-19T05:32:12;23.95;;;7.80;;
25559;SDS011;13450;49.374;8.584;2022-12-19T05:34:37;22.50;;;7.15;;
25559;SDS011;13450;49.374;8.584;2022-12-19T05:37:05;23.17;;;7.20;;
25559;SDS011;13450;49.374;8.584;2022-12-19T05:39:30;23.65;;;6.35;;
25559;SDS011;13450;49.374;8.584;2022-12-19T05:41:56;25.00;;;7.40;;
25559;SDS011;13450;49.374;8.584;2022-12-19T05:44:25;25.50;;;7.75;;
25559;SDS011;13450;49.374;8.584;2022-12-19T05:46:50;24.35;;;7.93;;
25559;SDS011;13450;49.374;8.584;2022-12-19T05:49:15;25.92;;;7.65;;
25559;SDS011;13450;49.374;8.584;2022-12-19T05:51:42;22.92;;;7.75;;
25559;SDS011;13450;49.374;8.584;2022-12-19T05:54:07;23.30;;;7.60;;
25559;SDS011;13450;49.374;8.584;2022-12-19T05:56:32;21.30;;;7.43;;
25559;SDS011;13450;49.374;8.584;2022-12-19T05:58:58;24.30;;;7.53;;
25559;SDS011;13450;49.374;8.584;2022-12-19T06:01:24;23.20;;;7.20;;
25559;SDS011;13450;49.374;8.584;2022-12-19T06:03:51;19.55;;;7.18;;
25559;SDS011;13450;49.374;8.584;2022-12-19T06:06:21;21.25;;;7.05;;
25559;SDS011;13450;49.374;8.584;2022-12-19T06:08:54;23.77;;;7.70;;
25559;SDS011;13450;49.374;8.584;2022-12-19T06:13:48;24.42;;;7.47;;
25559;SDS011;13450;49.374;8.584;2022-12-19T06:16:14;26.77;;;8.82;;
25559;SDS011;13450;49.374;8.584;2022-12-19T06:18:42;28.52;;;8.23;;
25559;SDS011;13450;49.374;8.584;2022-12-19T06:21:10;22.13;;;7.50;;
25559;SDS011;13450;49.374;8.584;2022-12-19T06:23:38;21.47;;;7.47;;
25559;SDS011;13450;49.374;8.584;2022-12-19T06:26:04;24.33;;;7.35;;
25559;SDS011;13450;49.374;8.584;2022-12-19T06:28:31;22.88;;;6.97;;
25559;SDS011;13450;49.374;8.584;2022-12-19T06:30:58;23.05;;;6.88;;
25559;SDS011;13450;49.374;8.584;2022-12-19T06:33:25;23.73;;;7.70;;
25559;SDS011;13450;49.374;8.584;2022-12-19T06:35:58;26.08;;;7.78;;
25559;SDS011;13450;49.374;8.584;2022-12-19T06:38:25;20.73;;;7.03;;
25559;SDS011;13450;49.374;8.584;2022-12-19T06:40:54;20.83;;;7.00;;
25559;SDS011;13450;49.374;8.584;2022-12-19T06:43:38;26.50;;;7.57;;
25559;SDS011;13450;49.374;8.584;2022-12-19T06:46:06;23.90;;;8.05;;
25559;SDS011;13450;49.374;8.584;2022-12-19T06:48:34;24.42;;;7.57;;
25559;SDS011;13450;49.374;8.584;2022-12-19T06:50:59;22.80;;;6.88;;
25559;SDS011;13450;49.374;8.584;2022-12-19T06:53:25;24.35;;;7.65;;
25559;SDS011;13450;49.374;8.584;2022-12-19T06:55:51;23.77;;;7.18;;
25559;SDS011;13450;49.374;8.584;2022-12-19T06:58:19;23.27;;;7.38;;
25559;SDS011;13450;49.374;8.584;2022-12-19T07:00:44;23.70;;;7.88;;
25559;SDS011;13450;49.374;8.584;2022-12-19T07:03:10;25.75;;;7.75;;
25559;SDS011;13450;49.374;8.584;2022-12-19T07:05:37;29.55;;;8.82;;
25559;SDS011;13450;49.374;8.584;2022-12-19T07:08:04;19.15;;;7.20;;
25559;SDS011;13450;49.374;8.584;2022-12-19T07:10:29;24.50;;;7.85;;
25559;SDS011;13450;49.374;8.584;2022-12-19T07:12:54;24.55;;;7.90;;
25559;SDS011;13450;49.374;8.584;2022-12-19T07:15:19;22.48;;;7.60;;
25559;SDS011;13450;49.374;8.584;2022-12-19T07:17:45;19.50;;;7.47;;
25559;SDS011;13450;49.374;8.584;2022-12-19T07:20:11;25.38;;;7.65;;
25559;SDS011;13450;49.374;8.584;2022-12-19T07:22:37;24.85;;;7.80;;
25559;SDS011;13450;49.374;8.584;2022-12-19T07:25:03;24.58;;;7.95;;
25559;SDS011;13450;49.374;8.584;2022-12-19T07:27:30;23.48;;;7.68;;
25559;SDS011;13450;49.374;8.584;2022-12-19T07:29:56;23.67;;;7.75;;
25559;SDS011;13450;49.374;8.584;2022-12-19T07:32:21;21.40;;;7.10;;
25559;SDS011;13450;49.374;8.584;2022-12-19T07:34:49;22.48;;;7.43;;
25559;SDS011;13450;49.374;8.584;2022-12-19T07:37:18;22.52;;;7.15;;
25559;SDS011;13450;49.374;8.584;2022-12-19T07:39:43;25.75;;;7.93;;
25559;SDS011;13450;49.374;8.584;2022-12-19T07:42:08;30.85;;;9.40;;
25559;SDS011;13450;49.374;8.584;2022-12-19T07:44:34;26.45;;;8.90;;
25559;SDS011;13450;49.374;8.584;2022-12-19T07:46:59;21.00;;;7.80;;
25559;SDS011;13450;49.374;8.584;2022-12-19T07:49:24;26.80;;;8.68;;
25559;SDS011;13450;49.374;8.584;2022-12-19T07:51:50;24.13;;;8.32;;
25559;SDS011;13450;49.374;8.584;2022-12-19T07:54:15;22.63;;;7.72;;
25559;SDS011;13450;49.374;8.584;2022-12-19T07:56:43;29.90;;;8.65;;
25559;SDS011;13450;49.374;8.584;2022-12-19T07:59:08;22.52;;;8.23;;
25559;SDS011;13450;49.374;8.584;2022-12-19T08:01:33;26.48;;;8.93;;
25559;SDS011;13450;49.374;8.584;2022-12-19T08:04:02;23.20;;;7.15;;
25559;SDS011;13450;49.374;8.584;2022-12-19T08:06:27;20.45;;;7.07;;
25559;SDS011;13450;49.374;8.584;2022-12-19T08:08:53;27.02;;;8.05;;
25559;SDS011;13450;49.374;8.584;2022-12-19T08:11:19;26.55;;;7.93;;
25559;SDS011;13450;49.374;8.584;2022-12-19T08:13:53;22.95;;;8.20;;
25559;SDS011;13450;49.374;8.584;2022-12-19T08:16:19;23.33;;;8.20;;
25559;SDS011;13450;49.374;8.584;2022-12-19T08:18:47;23.80;;;7.82;;
25559;SDS011;13450;49.374;8.584;2022-12-19T08:21:13;26.52;;;8.15;;
25559;SDS011;13450;49.374;8.584;2022-12-19T08:23:39;27.02;;;8.43;;
25559;SDS011;13450;49.374;8.584;2022-12-19T08:26:05;22.92;;;7.82;;
25559;SDS011;13450;49.374;8.584;2022-12-19T08:28:32;18.70;;;6.90;;
25559;SDS011;13450;49.374;8.584;2022-12-19T08:31:09;21.27;;;7.18;;
25559;SDS011;13450;49.374;8.584;2022-12-19T08:33:36;22.20;;;7.70;;
25559;SDS011;13450;49.374;8.584;2022-12-19T08:36:05;24.02;;;8.00;;
25559;SDS011;13450;49.374;8.584;2022-12-19T08:38:33;30.27;;;9.20;;
25559;SDS011;13450;49.374;8.584;2022-12-19T08:41:01;21.92;;;8.18;;
25559;SDS011;13450;49.374;8.584;2022-12-19T08:43:27;23.75;;;7.78;;
25559;SDS011;13450;49.374;8.584;2022-12-19T08:45:52;23.75;;;7.65;;
25559;SDS011;13450;49.374;8.584;2022-12-19T08:48:18;22.65;;;7.88;;
25559;SDS011;13450;49.374;8.584;2022-12-19T08:50:57;25.38;;;7.65;;
25559;SDS011;13450;49.374;8.584;2022-12-19T08:56:32;18.77;;;6.13;;
25559;SDS011;13450;49.374;8.584;2022-12-19T08:58:42;23.08;;;6.90;;
25559;SDS011;13450;49.374;8.584;2022-12-19T09:01:12;23.42;;;8.68;;
25559;SDS011;13450;49.374;8.584;2022-12-19T09:03:40;22.48;;;7.47;;
25559;SDS011;13450;49.374;8.584;2022-12-19T09:06:07;24.08;;;7.88;;
25559;SDS011;13450;49.374;8.584;2022-12-19T09:08:35;24.35;;;7.95;;
25559;SDS011;13450;49.374;8.584;2022-12-19T09:11:02;24.70;;;8.05;;
25559;SDS011;13450;49.374;8.584;2022-12-19T09:13:41;22.15;;;7.75;;
25559;SDS011;13450;49.374;8.584;2022-12-19T09:16:10;23.42;;;7.72;;
25559;SDS011;13450;49.374;8.584;2022-12-19T09:18:40;24.70;;;7.80;;
25559;SDS011;13450;49.374;8.584;2022-12-19T09:21:08;26.23;;;7.55;;
25559;SDS011;13450;49.374;8.584;2022-12-19T09:23:34;23.35;;;8.43;;
25559;SDS011;13450;49.374;8.584;2022-12-19T09:26:01;20.35;;;7.53;;
25559;SDS011;13450;49.374;8.584;2022-12-19T09:28:34;21.13;;;6.97;;
25559;SDS011;13450;49.374;8.584;2022-12-19T09:31:07;20.70;;;7.28;;
25559;SDS011;13450;49.374;8.584;2022-12-19T09:33:36;20.63;;;7.20;;
25559;SDS011;13450;49.374;8.584;2022-12-19T09:36:02;23.20;;;7.80;;
25559;SDS011;13450;49.374;8.584;2022-12-19T09:41:33;23.98;;;8.27;;
25559;SDS011;13450;49.374;8.584;2022-12-19T09:44:22;22.42;;;7.88;;
25559;SDS011;13450;49.374;8.584;2022-12-19T09:47:00;25.05;;;8.20;;
25559;SDS011;13450;49.374;8.584;2022-12-19T09:49:38;20.38;;;7.50;;
25559;SDS011;13450;49.374;8.584;2022-12-19T09:52:09;21.13;;;7.82;;
25559;SDS011;13450;49.374;8.584;2022-12-19T09:54:48;24.58;;;7.68;;
25559;SDS011;13450;49.374;8.584;2022-12-19T09:57:39;24.77;;;8.13;;
25559;SDS011;13450;49.374;8.584;2022-12-19T10:00:11;20.90;;;7.18;;
25559;SDS011;13450;49.374;8.584;2022-12-19T10:02:43;20.55;;;6.60;;
25559;SDS011;13450;49.374;8.584;2022-12-19T10:05:11;23.52;;;8.10;;
25559;SDS011;13450;49.374;8.584;2022-12-19T10:07:43;21.48;;;7.45;;
25559;SDS011;13450;49.374;8.584;2022-12-19T10:10:16;21.88;;;6.53;;
25559;SDS011;13450;49.374;8.584;2022-12-19T10:15:52;21.90;;;8.35;;
25559;SDS011;13450;49.374;8.584;2022-12-19T10:18:35;20.63;;;7.40;;
25559;SDS011;13450;49.374;8.584;2022-12-19T10:21:59;22.63;;;8.18;;
25559;SDS011;13450;49.374;8.584;2022-12-19T10:26:58;22.13;;;7.78;;
25559;SDS011;13450;49.374;8.584;2022-12-19T10:29:37;22.23;;;7.78;;
25559;SDS011;13450;49.374;8.584;2022-12-19T10:37:32;26.60;;;8.10;;
25559;SDS011;13450;49.374;8.584;2022-12-19T10:40:17;24.42;;;7.57;;
25559;SDS011;13450;49.374;8.584;2022-12-19T10:45:16;21.55;;;7.22;;
25559;SDS011;13450;49.374;8.584;2022-12-19T10:47:45;25.55;;;8.52;;
25559;SDS011;13450;49.374;8.584;2022-12-19T10:50:22;23.50;;;8.07;;
25559;SDS011;13450;49.374;8.584;2022-12-19T10:52:51;20.55;;;7.80;;
25559;SDS011;13450;49.374;8.584;2022-12-19T10:55:20;21.35;;;7.07;;
25559;SDS011;13450;49.374;8.584;2022-12-19T10:57:49;22.10;;;7.35;;
25559;SDS011;13450;49.374;8.584;2022-12-19T11:00:18;18.95;;;6.75;;
25559;SDS011;13450;49.374;8.584;2022-12-19T11:02:47;18.75;;;7.10;;
25559;SDS011;13450;49.374;8.584;2022-12-19T11:13:08;22.27;;;7.40;;
25559;SDS011;13450;49.374;8.584;2022-12-19T11:15:58;27.23;;;11.43;;
25559;SDS011;13450;49.374;8.584;2022-12-19T11:18:32;20.05;;;7.22;;
25559;SDS011;13450;49.374;8.584;2022-12-19T11:21:14;28.13;;;8.77;;
25559;SDS011;13450;49.374;8.584;2022-12-19T11:23:51;20.80;;;7.77;;
25559;SDS011;13450;49.374;8.584;2022-12-19T11:32:06;21.27;;;7.35;;
25559;SDS011;13450;49.374;8.584;2022-12-19T11:34:48;19.88;;;6.18;;
25559;SDS011;13450;49.374;8.584;2022-12-19T11:39:56;18.77;;;6.88;;
25559;SDS011;13450;49.374;8.584;2022-12-19T11:42:33;20.63;;;7.43;;
25559;SDS011;13450;49.374;8.584;2022-12-19T11:45:16;22.33;;;7.63;;
25559;SDS011;13450;49.374;8.584;2022-12-19T11:47:49;19.20;;;7.00;;
25559;SDS011;13450;49.374;8.584;2022-12-19T11:50:26;21.70;;;7.38;;
25559;SDS011;13450;49.374;8.584;2022-12-19T11:55:43;15.57;;;6.47;;
25559;SDS011;13450;49.374;8.584;2022-12-19T11:58:15;20.17;;;7.22;;
25559;SDS011;13450;49.374;8.584;2022-12-19T12:00:48;17.70;;;6.85;;
25559;SDS011;13450;49.374;8.584;2022-12-19T12:06:15;19.85;;;7.30;;
25559;SDS011;13450;49.374;8.584;2022-12-19T12:16:15;22.42;;;7.75;;
25559;SDS011;13450;49.374;8.584;2022-12-19T12:21:36;16.85;;;6.53;;
25559;SDS011;13450;49.374;8.584;2022-12-19T12:29:30;17.42;;;6.50;;
25559;SDS011;13450;49.374;8.584;2022-12-19T12:40:47;19.83;;;7.93;;
25559;SDS011;13450;49.374;8.584;2022-12-19T12:43:45;21.70;;;8.45;;
25559;SDS011;13450;49.374;8.584;2022-12-19T12:46:44;20.92;;;7.95;;
25559;SDS011;13450;49.374;8.584;2022-12-19T12:51:56;23.63;;;7.95;;
25559;SDS011;13450;49.374;8.584;2022-12-19T12:54:23;21.33;;;7.57;;
25559;SDS011;13450;49.374;8.584;2022-12-19T12:56:57;18.05;;;8.02;;
25559;SDS011;13450;49.374;8.584;2022-12-19T12:59:26;20.63;;;7.40;;
25559;SDS011;13450;49.374;8.584;2022-12-19T13:07:12;23.75;;;8.60;;
25559;SDS011;13450;49.374;8.584;2022-12-19T13:09:43;17.55;;;7.85;;
25559;SDS011;13450;49.374;8.584;2022-12-19T13:12:23;19.48;;;6.80;;
25559;SDS011;13450;49.374;8.584;2022-12-19T13:27:54;22.27;;;7.90;;
25559;SDS011;13450;49.374;8.584;2022-12-19T13:30:24;21.40;;;7.68;;
25559;SDS011;13450;49.374;8.584;2022-12-19T13:33:10;21.13;;;7.78;;
25559;SDS011;13450;49.374;8.584;2022-12-19T13:35:37;20.55;;;7.65;;
25559;SDS011;13450;49.374;8.584;2022-12-19T13:43:40;18.02;;;7.07;;
25559;SDS011;13450;49.374;8.584;2022-12-19T13:46:22;20.35;;;6.55;;
25559;SDS011;13450;49.374;8.584;2022-12-19T13:49:14;21.13;;;8.13;;
25559;SDS011;13450;49.374;8.584;2022-12-19T13:51:50;21.80;;;7.72;;
25559;SDS011;13450;49.374;8.584;2022-12-19T13:54:21;16.90;;;6.80;;
25559;SDS011;13450;49.374;8.584;2022-12-19T13:56:52;19.40;;;7.05;;
25559;SDS011;13450;49.374;8.584;2022-12-19T13:59:23;23.30;;;8.63;;
25559;SDS011;13450;49.374;8.584;2022-12-19T14:01:55;24.98;;;7.93;;
25559;SDS011;13450;49.374;8.584;2022-12-19T14:04:31;24.10;;;8.27;;
25559;SDS011;13450;49.374;8.584;2022-12-19T14:07:01;23.45;;;8.98;;
25559;SDS011;13450;49.374;8.584;2022-12-19T14:09:36;20.52;;;7.53;;
25559;SDS011;13450;49.374;8.584;2022-12-19T14:12:04;24.15;;;8.45;;
25559;SDS011;13450;49.374;8.584;2022-12-19T14:14:56;21.20;;;8.75;;
25559;SDS011;13450;49.374;8.584;2022-12-19T14:17:40;23.27;;;8.52;;
25559;SDS011;13450;49.374;8.584;2022-12-19T14:20:19;23.48;;;7.82;;
25559;SDS011;13450;49.374;8.584;2022-12-19T14:22:47;19.90;;;7.78;;
25559;SDS011;13450;49.374;8.584;2022-12-19T14:25:12;21.48;;;9.45;;
25559;SDS011;13450;49.374;8.584;2022-12-19T14:27:44;23.13;;;9.20;;
25559;SDS011;13450;49.374;8.584;2022-12-19T14:30:19;26.45;;;9.70;;
25559;SDS011;13450;49.374;8.584;2022-12-19T14:32:47;19.33;;;8.25;;
25559;SDS011;13450;49.374;8.584;2022-12-19T14:35:16;21.83;;;9.45;;
25559;SDS011;13450;49.374;8.584;2022-12-19T14:37:45;22.88;;;8.77;;
25559;SDS011;13450;49.374;8.584;2022-12-19T14:40:22;18.80;;;7.38;;
25559;SDS011;13450;49.374;8.584;2022-12-19T14:43:00;22.40;;;8.43;;
25559;SDS011;13450;49.374;8.584;2022-12-19T14:45:47;22.48;;;7.80;;
25559;SDS011;13450;49.374;8.584;2022-12-19T14:49:20;24.27;;;8.68;;
25559;SDS011;13450;49.374;8.584;2022-12-19T14:51:19;23.80;;;7.57;;
25559;SDS011;13450;49.374;8.584;2022-12-19T14:59:25;21.67;;;7.95;;
25559;SDS011;13450;49.374;8.584;2022-12-19T15:01:52;22.98;;;8.27;;
25559;SDS011;13450;49.374;8.584;2022-12-19T15:04:25;20.80;;;7.95;;
25559;SDS011;13450;49.374;8.584;2022-12-19T15:06:55;23.08;;;8.38;;
25559;SDS011;13450;49.374;8.584;2022-12-19T15:09:23;22.20;;;8.27;;
25559;SDS011;13450;49.374;8.584;2022-12-19T15:11:53;24.75;;;8.32;;
25559;SDS011;13450;49.374;8.584;2022-12-19T15:14:42;23.27;;;8.43;;
25559;SDS011;13450;49.374;8.584;2022-12-19T15:19:49;26.25;;;9.18;;
25559;SDS011;13450;49.374;8.584;2022-12-19T15:22:15;23.45;;;8.13;;
25559;SDS011;13450;49.374;8.584;2022-12-19T15:24:41;22.58;;;7.63;;
25559;SDS011;13450;49.374;8.584;2022-12-19T15:27:10;25.10;;;7.25;;
25559;SDS011;13450;49.374;8.584;2022-12-19T15:32:05;20.42;;;6.82;;
25559;SDS011;13450;49.374;8.584;2022-12-19T15:34:36;20.15;;;7.90;;
25559;SDS011;13450;49.374;8.584;2022-12-19T15:37:07;19.40;;;7.10;;
25559;SDS011;13450;49.374;8.584;2022-12-19T15:39:38;23.20;;;7.88;;
25559;SDS011;13450;49.374;8.584;2022-12-19T15:42:04;21.27;;;7.60;;
25559;SDS011;13450;49.374;8.584;2022-12-19T15:44:38;18.98;;;8.10;;
25559;SDS011;13450;49.374;8.584;2022-12-19T15:47:06;21.30;;;7.60;;
25559;SDS011;13450;49.374;8.584;2022-12-19T15:49:57;23.63;;;8.05;;
25559;SDS011;13450;49.374;8.584;2022-12-19T15:52:26;21.15;;;7.53;;
25559;SDS011;13450;49.374;8.584;2022-12-19T15:54:52;23.10;;;7.97;;
25559;SDS011;13450;49.374;8.584;2022-12-19T15:57:19;25.05;;;9.48;;
25559;SDS011;13450;49.374;8.584;2022-12-19T15:59:45;20.40;;;8.30;;
25559;SDS011;13450;49.374;8.584;2022-12-19T16:02:14;25.23;;;8.50;;
25559;SDS011;13450;49.374;8.584;2022-12-19T16:04:42;26.02;;;9.65;;
25559;SDS011;13450;49.374;8.584;2022-12-19T16:07:15;27.02;;;11.15;;
25559;SDS011;13450;49.374;8.584;2022-12-19T16:09:42;30.40;;;11.20;;
25559;SDS011;13450;49.374;8.584;2022-12-19T16:12:08;64.40;;;17.55;;
25559;SDS011;13450;49.374;8.584;2022-12-19T16:14:38;41.72;;;12.60;;
25559;SDS011;13450;49.374;8.584;2022-12-19T16:17:04;40.00;;;11.77;;
25559;SDS011;13450;49.374;8.584;2022-12-19T16:19:34;49.28;;;14.43;;
25559;SDS011;13450;49.374;8.584;2022-12-19T16:21:59;48.40;;;14.05;;
25559;SDS011;13450;49.374;8.584;2022-12-19T16:24:25;68.25;;;17.50;;
25559;SDS011;13450;49.374;8.584;2022-12-19T16:26:52;69.07;;;19.08;;
25559;SDS011;13450;49.374;8.584;2022-12-19T16:29:19;37.80;;;11.60;;
25559;SDS011;13450;49.374;8.584;2022-12-19T16:31:53;29.80;;;10.80;;
25559;SDS011;13450;49.374;8.584;2022-12-19T16:34:19;23.70;;;10.18;;
25559;SDS011;13450;49.374;8.584;2022-12-19T16:36:47;31.88;;;10.75;;
25559;SDS011;13450;49.374;8.584;2022-12-19T16:39:13;30.83;;;10.48;;
25559;SDS011;13450;49.374;8.584;2022-12-19T16:41:40;30.85;;;10.15;;
25559;SDS011;13450;49.374;8.584;2022-12-19T16:44:16;27.27;;;9.52;;
25559;SDS011;13450;49.374;8.584;2022-12-19T16:46:44;27.90;;;10.23;;
25559;SDS011;13450;49.374;8.584;2022-12-19T16:49:13;31.77;;;10.55;;
25559;SDS011;13450;49.374;8.584;2022-12-19T16:51:43;32.70;;;12.50;;
25559;SDS011;13450;49.374;8.584;2022-12-19T16:54:15;29.65;;;10.38;;
25559;SDS011;13450;49.374;8.584;2022-12-19T16:56:45;34.85;;;12.25;;
25559;SDS011;13450;49.374;8.584;2022-12-19T16:59:17;36.72;;;11.48;;
25559;SDS011;13450;49.374;8.584;2022-12-19T17:01:57;29.00;;;10.55;;
25559;SDS011;13450;49.374;8.584;2022-12-19T17:04:24;28.40;;;11.30;;
25559;SDS011;13450;49.374;8.584;2022-12-19T17:06:51;28.08;;;10.50;;
25559;SDS011;13450;49.374;8.584;2022-12-19T17:09:20;33.90;;;11.47;;
25559;SDS011;13450;49.374;8.584;2022-12-19T17:11:48;28.27;;;10.50;;
25559;SDS011;13450;49.374;8.584;2022-12-19T17:16:44;35.28;;;11.52;;
25559;SDS011;13450;49.374;8.584;2022-12-19T17:19:17;31.83;;;10.77;;
25559;SDS011;13450;49.374;8.584;2022-12-19T17:21:47;32.70;;;11.70;;